createdAt,value
2016-12-11T00:01:45.269Z,1008.94
2016-12-11T00:06:41.819Z,1008.92
2016-12-11T00:11:38.312Z,1008.79
2016-12-11T00:16:34.848Z,1008.65
2016-12-11T00:21:31.454Z,1008.60
2016-12-11T00:26:28.711Z,1008.37
2016-12-11T00:31:25.041Z,1008.22
2016-12-11T00:36:21.792Z,1008.09
2016-12-11T00:41:18.369Z,1008.01
2016-12-11T00:46:14.768Z,1007.96
2016-12-11T00:51:11.091Z,1007.82
2016-12-11T00:56:07.568Z,1007.66
2016-12-11T01:01:03.991Z,1007.49
2016-12-11T01:06:00.820Z,1007.35
2016-12-11T01:10:57.391Z,1007.30
2016-12-11T01:15:53.705Z,1007.24
2016-12-11T01:20:50.342Z,1007.12
2016-12-11T01:25:46.794Z,1006.99
2016-12-11T01:30:43.393Z,1006.89
2016-12-11T01:35:39.893Z,1006.76
2016-12-11T01:40:36.326Z,1006.76
2016-12-11T01:45:32.730Z,1006.82
2016-12-11T01:50:29.297Z,1006.78
2016-12-11T01:55:25.798Z,1006.38
2016-12-11T02:00:22.232Z,1006.28
2016-12-11T02:05:18.390Z,1006.11
2016-12-11T02:10:14.868Z,1006.11
2016-12-11T02:15:11.380Z,1006.02
2016-12-11T02:20:08.023Z,1006.04
2016-12-11T02:25:05.275Z,1005.67
2016-12-11T02:30:01.912Z,1005.60
2016-12-11T02:34:58.376Z,1005.55
2016-12-11T02:39:55.355Z,1005.31
2016-12-11T02:44:51.740Z,1005.13
2016-12-11T02:49:48.238Z,1005.20
2016-12-11T02:59:44.814Z,1005.08
2016-12-11T03:04:41.799Z,1004.79
2016-12-11T03:09:38.224Z,1004.90
2016-12-11T03:14:34.726Z,1004.86
2016-12-11T03:19:31.610Z,1004.80
2016-12-11T03:24:28.076Z,1004.82
2016-12-11T03:29:25.157Z,1004.81
2016-12-11T03:34:21.571Z,1004.84
2016-12-11T03:39:18.206Z,1004.86
2016-12-11T03:44:15.034Z,1004.89
2016-12-11T03:49:11.495Z,1004.91
2016-12-11T03:54:07.825Z,1004.84
2016-12-11T03:59:04.218Z,1004.71
2016-12-11T04:04:01.238Z,1004.57
2016-12-11T04:08:57.733Z,1004.57
2016-12-11T04:13:54.079Z,1004.25
2016-12-11T04:18:50.572Z,1004.51
2016-12-11T04:23:46.960Z,1004.74
2016-12-11T04:28:43.920Z,1004.64
2016-12-11T04:33:40.714Z,1004.94
2016-12-11T04:38:37.232Z,1005.14
2016-12-11T04:43:33.840Z,1005.49
2016-12-11T04:48:29.939Z,1005.70
2016-12-11T04:53:26.816Z,1006.08
2016-12-11T04:58:23.097Z,1006.36
2016-12-11T05:03:19.475Z,1006.64
2016-12-11T05:08:16.867Z,1007.10
2016-12-11T05:13:12.894Z,1007.49
2016-12-11T05:18:09.209Z,1007.57
2016-12-11T05:23:05.398Z,1007.59
2016-12-11T05:28:01.788Z,1007.87
2016-12-11T05:32:58.307Z,1008.08
2016-12-11T05:37:54.296Z,1008.31
2016-12-11T05:42:50.565Z,1008.53
2016-12-11T05:47:47.274Z,1008.65
2016-12-11T05:52:43.654Z,1008.96
2016-12-11T05:57:40.458Z,1009.10
2016-12-11T06:02:36.941Z,1009.44
2016-12-11T06:07:33.321Z,1009.51
2016-12-11T06:12:29.805Z,1009.90
2016-12-11T06:17:26.250Z,1009.89
2016-12-11T06:22:22.974Z,1009.97
2016-12-11T06:27:19.593Z,1010.05
2016-12-11T06:32:16.268Z,1010.13
2016-12-11T06:37:12.554Z,1010.29
2016-12-11T06:42:08.693Z,1010.28
2016-12-11T06:47:05.235Z,1010.37
2016-12-11T06:52:04.060Z,1010.41
2016-12-11T06:56:59.873Z,1010.42
2016-12-11T07:01:56.440Z,1010.55
2016-12-11T07:06:52.827Z,1010.66
2016-12-11T07:11:49.257Z,1010.73
2016-12-11T07:16:45.746Z,1010.81
2016-12-11T07:21:42.361Z,1010.72
2016-12-11T07:26:38.438Z,1010.88
2016-12-11T07:31:35.121Z,1010.94
2016-12-11T07:36:31.574Z,1011.02
2016-12-11T07:41:28.156Z,1011.11
2016-12-11T07:46:24.626Z,1011.02
2016-12-11T07:51:21.079Z,1011.24
2016-12-11T07:56:17.703Z,1011.20
2016-12-11T08:01:14.009Z,1011.34
2016-12-11T08:06:10.540Z,1011.33
2016-12-11T08:11:07.830Z,1011.42
2016-12-11T08:16:04.380Z,1011.47
2016-12-11T08:26:03.632Z,1011.57
2016-12-11T08:31:00.182Z,1011.54
2016-12-11T08:35:56.601Z,1011.61
2016-12-11T08:40:53.040Z,1011.58
2016-12-11T08:45:49.686Z,1011.73
2016-12-11T08:50:46.761Z,1011.73
2016-12-11T08:55:43.159Z,1012.00
2016-12-11T09:00:39.477Z,1011.97
2016-12-11T09:05:36.241Z,1012.12
2016-12-11T09:10:35.328Z,1012.16
2016-12-11T09:15:31.231Z,1012.26
2016-12-11T09:20:27.842Z,1012.33
2016-12-11T09:25:25.851Z,1012.36
2016-12-11T09:30:21.977Z,1012.32
2016-12-11T09:35:18.593Z,1012.45
2016-12-11T09:40:15.207Z,1012.38
2016-12-11T09:45:11.907Z,1012.58
2016-12-11T09:50:08.638Z,1012.53
2016-12-11T09:55:04.971Z,1012.52
2016-12-11T10:00:01.509Z,1012.48
2016-12-11T10:04:57.869Z,1012.46
2016-12-11T10:09:54.571Z,1012.42
2016-12-11T10:14:51.182Z,1012.45
2016-12-11T10:19:47.788Z,1012.42
2016-12-11T10:24:44.102Z,1012.49
2016-12-11T10:29:42.583Z,1012.45
2016-12-11T10:34:38.114Z,1012.43
2016-12-11T10:39:34.815Z,1012.37
2016-12-11T10:44:31.768Z,1012.40
2016-12-11T10:49:28.076Z,1012.47
2016-12-11T10:54:24.598Z,1012.46
2016-12-11T10:59:21.560Z,1012.49
2016-12-11T11:04:18.250Z,1012.53
2016-12-11T11:09:15.248Z,1012.43
2016-12-11T11:14:11.957Z,1012.43
2016-12-11T11:19:09.809Z,1012.36
2016-12-11T11:24:05.732Z,1012.51
2016-12-11T11:29:02.115Z,1012.48
2016-12-11T11:33:58.789Z,1012.48
2016-12-11T11:38:55.965Z,1012.53
2016-12-11T11:43:53.796Z,1012.65
2016-12-11T11:48:50.189Z,1012.67
2016-12-11T11:53:46.474Z,1012.66
2016-12-11T11:58:42.922Z,1012.66
2016-12-11T12:03:39.661Z,1012.78
2016-12-11T12:08:35.989Z,1012.66
2016-12-11T12:13:32.528Z,1012.73
2016-12-11T12:18:29.177Z,1012.55
2016-12-11T12:23:25.458Z,1012.59
2016-12-11T12:28:22.701Z,1012.50
2016-12-11T12:33:19.161Z,1012.57
2016-12-11T12:38:15.750Z,1012.67
2016-12-11T12:43:12.011Z,1012.62
2016-12-11T12:48:10.942Z,1012.51
2016-12-11T12:53:07.174Z,1012.54
2016-12-11T12:58:03.654Z,1012.43
2016-12-11T13:03:00.642Z,1012.55
2016-12-11T13:07:57.245Z,1012.72
2016-12-11T13:12:54.518Z,1012.55
2016-12-11T13:17:50.771Z,1012.69
2016-12-11T13:22:47.806Z,1012.75
2016-12-11T13:27:44.369Z,1012.57
2016-12-11T13:32:41.161Z,1012.60
2016-12-11T13:37:38.089Z,1012.67
2016-12-11T13:42:35.817Z,1012.62
2016-12-11T13:47:32.201Z,1012.50
2016-12-11T13:52:28.759Z,1012.51
2016-12-11T13:57:25.882Z,1012.47
2016-12-11T14:02:22.519Z,1012.45
2016-12-11T14:07:19.389Z,1012.47
2016-12-11T14:12:15.834Z,1012.59
2016-12-11T14:17:13.086Z,1012.62
2016-12-11T14:22:09.591Z,1012.65
2016-12-11T14:27:06.349Z,1012.75
2016-12-11T14:32:02.719Z,1012.72
2016-12-11T14:37:00.154Z,1012.66
2016-12-11T14:41:56.291Z,1012.72
2016-12-11T14:46:53.031Z,1012.84
2016-12-11T14:51:49.159Z,1012.84
2016-12-11T14:56:46.858Z,1012.88
2016-12-11T15:01:43.513Z,1013.03
2016-12-11T15:06:39.900Z,1013.00
2016-12-11T15:11:36.417Z,1013.03
2016-12-11T15:16:32.892Z,1013.05
2016-12-11T15:21:30.219Z,1012.98
2016-12-11T15:26:26.691Z,1013.10
2016-12-11T15:31:24.524Z,1013.13
2016-12-11T15:36:22.043Z,1013.18
2016-12-11T15:41:18.479Z,1013.23
2016-12-11T15:46:15.057Z,1013.22
2016-12-11T15:51:11.282Z,1013.22
2016-12-11T15:56:08.051Z,1013.16
2016-12-11T16:01:04.755Z,1013.11
2016-12-11T16:06:01.125Z,1013.09
2016-12-11T16:10:57.883Z,1013.02
2016-12-11T16:15:54.131Z,1012.94
2016-12-11T16:20:50.620Z,1012.94
2016-12-11T16:25:47.609Z,1013.07
2016-12-11T16:30:44.883Z,1013.04
2016-12-11T16:35:41.031Z,1013.02
2016-12-11T16:40:37.452Z,1013.06
2016-12-11T16:45:34.038Z,1013.15
2016-12-11T16:50:30.563Z,1013.08
2016-12-11T16:55:27.986Z,1013.08
2016-12-11T17:00:24.505Z,1013.08
2016-12-11T17:05:20.972Z,1013.08
2016-12-11T17:10:17.293Z,1013.15
2016-12-11T17:15:14.869Z,1013.20
2016-12-11T17:20:11.376Z,1013.17
2016-12-11T17:25:10.518Z,1013.26
2016-12-11T17:30:06.250Z,1013.11
2016-12-11T17:35:04.031Z,1013.24
2016-12-11T17:39:59.651Z,1013.13
2016-12-11T17:44:58.732Z,1013.21
2016-12-11T17:49:54.626Z,1013.30
2016-12-11T17:54:54.137Z,1013.30
2016-12-11T17:59:50.187Z,1013.38
2016-12-11T18:04:48.855Z,1013.29
2016-12-11T18:09:44.612Z,1013.32
2016-12-11T18:14:40.606Z,1013.37
2016-12-11T18:19:37.537Z,1013.44
2016-12-11T18:24:36.381Z,1013.47
2016-12-11T18:29:32.979Z,1013.41
2016-12-11T18:34:29.314Z,1013.50
2016-12-11T18:39:25.553Z,1013.51
2016-12-11T18:44:21.836Z,1013.49
2016-12-11T18:49:19.646Z,1013.42
2016-12-11T18:54:16.611Z,1013.49
2016-12-11T18:59:13.023Z,1013.49
2016-12-11T19:04:13.570Z,1013.49
2016-12-11T19:09:09.632Z,1013.49
2016-12-11T19:14:05.886Z,1013.52
2016-12-11T19:19:02.370Z,1013.51
2016-12-11T19:23:59.287Z,1013.47
2016-12-11T19:28:55.960Z,1013.50
2016-12-11T19:33:52.594Z,1013.46
2016-12-11T19:38:49.863Z,1013.34
2016-12-11T19:43:46.337Z,1013.52
2016-12-11T19:48:42.653Z,1013.53
2016-12-11T19:53:39.541Z,1013.60
2016-12-11T19:58:37.143Z,1013.60
2016-12-11T20:03:35.687Z,1013.64
2016-12-11T20:08:31.846Z,1013.63
2016-12-11T20:13:28.525Z,1013.54
2016-12-11T20:18:25.177Z,1013.69
2016-12-11T20:23:21.558Z,1013.64
2016-12-11T20:28:17.763Z,1013.67
2016-12-11T20:33:14.054Z,1013.58
2016-12-11T20:38:10.581Z,1013.58
2016-12-11T20:43:07.870Z,1013.66
2016-12-11T20:48:03.992Z,1013.67
2016-12-11T20:53:00.294Z,1013.69
2016-12-11T20:57:56.686Z,1013.66
2016-12-11T21:02:53.381Z,1013.74
2016-12-11T21:07:49.664Z,1013.66
2016-12-11T21:12:46.331Z,1013.70
2016-12-11T21:17:42.858Z,1013.78
2016-12-11T21:22:39.574Z,1013.82
2016-12-11T21:27:36.174Z,1013.85
2016-12-11T21:32:32.574Z,1013.86
2016-12-11T21:37:29.182Z,1013.91
2016-12-11T21:42:25.646Z,1013.93
2016-12-11T21:47:21.956Z,1014.07
2016-12-11T21:52:18.445Z,1014.14
2016-12-11T21:57:15.568Z,1014.06
2016-12-11T22:02:11.968Z,1014.17
2016-12-11T22:07:08.409Z,1014.20
2016-12-11T22:12:05.132Z,1014.36
2016-12-11T22:17:01.489Z,1014.32
2016-12-11T22:21:57.996Z,1014.27
2016-12-11T22:26:54.389Z,1014.41
2016-12-11T22:31:50.857Z,1014.46
2016-12-11T22:36:47.225Z,1014.47
2016-12-11T22:41:43.772Z,1014.48
2016-12-11T22:46:40.137Z,1014.53
2016-12-11T22:51:36.557Z,1014.35
2016-12-11T22:56:33.030Z,1014.47
2016-12-11T23:01:29.932Z,1014.47
2016-12-11T23:06:26.382Z,1014.60
2016-12-11T23:11:22.852Z,1014.64
2016-12-11T23:16:19.337Z,1014.66
2016-12-11T23:21:15.585Z,1014.62
2016-12-11T23:26:13.189Z,1014.75
2016-12-11T23:31:09.933Z,1014.82
2016-12-11T23:36:06.194Z,1014.79
2016-12-11T23:41:02.935Z,1014.84
2016-12-11T23:45:59.495Z,1014.83
2016-12-11T23:50:56.395Z,1014.95
2016-12-11T23:55:52.772Z,1014.92
